createdAt,value
2022-09-09T00:00:55.012Z,100010.97
2022-09-09T00:03:28.111Z,100010.53
2022-09-09T00:06:19.469Z,100021.84
2022-09-09T00:09:16.664Z,100017.91
2022-09-09T00:12:18.103Z,100017.88
2022-09-09T00:14:49.318Z,100009.03
2022-09-09T00:17:32.386Z,100020.81
2022-09-09T00:20:20.700Z,100036.75
2022-09-09T00:23:00.124Z,100030.59
2022-09-09T00:25:35.240Z,100024.13
2022-09-09T00:28:01.998Z,100014.69
2022-09-09T00:30:35.934Z,100021.94
2022-09-09T00:33:14.021Z,100019.50
2022-09-09T00:35:45.692Z,100025.38
2022-09-09T00:38:17.617Z,100022.00
2022-09-09T00:40:53.997Z,100023.69
2022-09-09T00:43:26.688Z,100019.25
2022-09-09T00:46:19.257Z,100021.38
2022-09-09T00:48:45.970Z,100028.31
2022-09-09T00:51:24.768Z,100018.63
2022-09-09T00:54:14.377Z,100028.53
2022-09-09T00:57:13.975Z,100025.78
2022-09-09T00:59:54.516Z,100033.78
2022-09-09T01:02:42.789Z,100049.47
2022-09-09T01:05:21.103Z,100049.44
2022-09-09T01:07:53.956Z,100051.28
2022-09-09T01:10:47.185Z,100057.56
2022-09-09T01:13:31.583Z,100059.94
2022-09-09T01:16:07.084Z,100063.38
2022-09-09T01:18:38.147Z,100057.63
2022-09-09T01:21:29.344Z,100060.91
2022-09-09T01:24:35.702Z,100056.50
2022-09-09T01:27:05.274Z,100060.22
2022-09-09T01:29:32.027Z,100062.13
2022-09-09T01:31:58.510Z,100058.28
2022-09-09T01:34:29.751Z,100057.91
2022-09-09T01:37:11.379Z,100065.41
2022-09-09T01:39:40.049Z,100057.59
2022-09-09T01:42:10.222Z,100053.78
2022-09-09T01:44:38.951Z,100054.84
2022-09-09T01:47:06.340Z,100057.31
2022-09-09T01:49:33.952Z,100068.31
2022-09-09T01:52:00.793Z,100073.50
2022-09-09T01:54:31.156Z,100068.28
2022-09-09T01:57:22.184Z,100077.69
2022-09-09T01:59:54.887Z,100068.03
2022-09-09T02:02:36.732Z,100064.84
2022-09-09T02:05:17.894Z,100053.91
2022-09-09T02:07:49.350Z,100041.34
2022-09-09T02:10:31.758Z,100047.47
2022-09-09T02:13:11.488Z,100058.09
2022-09-09T02:15:51.950Z,100053.69
2022-09-09T02:18:34.692Z,100054.47
2022-09-09T02:21:03.738Z,100059.47
2022-09-09T02:23:31.614Z,100060.28
2022-09-09T02:25:59.713Z,100059.81
2022-09-09T02:28:29.767Z,100064.50
2022-09-09T02:30:57.316Z,100043.78
2022-09-09T02:33:28.107Z,100049.22
2022-09-09T02:35:57.638Z,100053.53
2022-09-09T02:38:29.788Z,100056.50
2022-09-09T02:40:56.418Z,100063.44
2022-09-09T02:43:23.370Z,100065.94
2022-09-09T02:45:58.793Z,100065.00
2022-09-09T02:48:52.069Z,100067.16
2022-09-09T02:51:34.873Z,100068.84
2022-09-09T02:54:31.836Z,100069.63
2022-09-09T02:57:26.698Z,100083.59
2022-09-09T02:59:53.788Z,100087.75
2022-09-09T03:02:20.486Z,100087.28
2022-09-09T03:04:51.833Z,100089.72
2022-09-09T03:07:21.776Z,100088.41
2022-09-09T03:09:48.511Z,100092.00
2022-09-09T03:12:15.035Z,100091.31
2022-09-09T03:14:41.608Z,100089.34
2022-09-09T03:17:08.145Z,100097.50
2022-09-09T03:19:36.244Z,100094.69
2022-09-09T03:22:02.820Z,100097.41
2022-09-09T03:24:29.292Z,100098.72
2022-09-09T03:26:56.807Z,100098.91
2022-09-09T03:29:23.266Z,100102.34
2022-09-09T03:31:49.882Z,100098.81
2022-09-09T03:34:16.405Z,100095.41
2022-09-09T03:36:42.975Z,100093.91
2022-09-09T03:39:09.572Z,100090.44
2022-09-09T03:41:36.132Z,100093.06
2022-09-09T03:44:02.866Z,100090.69
2022-09-09T03:46:29.441Z,100097.91
2022-09-09T03:48:55.990Z,100104.75
2022-09-09T03:51:23.073Z,100104.25
2022-09-09T03:53:50.069Z,100112.81
2022-09-09T03:56:17.012Z,100115.47
2022-09-09T03:58:43.536Z,100101.91
2022-09-09T04:01:15.857Z,100097.66
2022-09-09T04:03:43.057Z,100104.13
2022-09-09T04:06:12.794Z,100099.78
2022-09-09T04:08:39.558Z,100103.16
2022-09-09T04:11:07.375Z,100104.31
2022-09-09T04:13:40.071Z,100094.53
2022-09-09T04:16:07.538Z,100098.19
2022-09-09T04:18:35.582Z,100096.06
2022-09-09T04:21:02.351Z,100105.72
2022-09-09T04:23:30.512Z,100114.06
2022-09-09T04:25:59.069Z,100107.50
2022-09-09T04:28:29.376Z,100107.50
2022-09-09T04:30:56.264Z,100106.28
2022-09-09T04:33:22.750Z,100106.66
2022-09-09T04:35:50.719Z,100100.81
2022-09-09T04:38:18.307Z,100098.94
2022-09-09T04:40:47.756Z,100099.41
2022-09-09T04:43:15.778Z,100098.88
2022-09-09T04:45:43.276Z,100098.69
2022-09-09T04:48:13.010Z,100097.00
2022-09-09T04:50:39.717Z,100097.38
2022-09-09T04:53:06.512Z,100102.63
2022-09-09T04:55:33.451Z,100098.75
2022-09-09T04:58:07.899Z,100093.13
2022-09-09T05:00:36.800Z,100099.06
2022-09-09T05:03:05.411Z,100107.69
2022-09-09T05:05:37.234Z,100112.75
2022-09-09T05:08:09.465Z,100110.13
2022-09-09T05:10:38.660Z,100108.28
2022-09-09T05:13:06.217Z,100110.63
2022-09-09T05:15:32.796Z,100117.56
2022-09-09T05:18:03.253Z,100114.66
2022-09-09T05:20:30.172Z,100117.03
2022-09-09T05:22:57.495Z,100123.28
2022-09-09T05:25:26.948Z,100110.56
2022-09-09T05:27:54.737Z,100117.97
2022-09-09T05:30:23.175Z,100114.69
2022-09-09T05:32:50.007Z,100117.34
2022-09-09T05:35:17.295Z,100113.03
2022-09-09T05:37:43.810Z,100116.22
2022-09-09T05:40:12.057Z,100122.97
2022-09-09T05:42:39.986Z,100126.66
2022-09-09T05:45:08.759Z,100124.06
2022-09-09T05:47:36.447Z,100125.19
2022-09-09T05:50:03.273Z,100125.28
2022-09-09T05:52:29.803Z,100132.59
2022-09-09T05:54:57.959Z,100127.25
2022-09-09T05:57:24.487Z,100126.94
2022-09-09T05:59:50.962Z,100129.09
2022-09-09T06:02:17.715Z,100124.97
2022-09-09T06:04:44.270Z,100129.47
2022-09-09T06:07:10.788Z,100125.78
2022-09-09T06:09:37.410Z,100125.22
2022-09-09T06:12:04.002Z,100123.41
2022-09-09T06:14:30.922Z,100124.25
2022-09-09T06:16:57.708Z,100116.81
2022-09-09T06:19:27.839Z,100124.66
2022-09-09T06:21:54.401Z,100119.13
2022-09-09T06:24:21.073Z,100119.81
2022-09-09T06:26:47.643Z,100134.84
2022-09-09T06:29:14.205Z,100127.19
2022-09-09T06:31:42.420Z,100136.06
2022-09-09T06:34:09.980Z,100128.97
2022-09-09T06:36:38.738Z,100132.16
2022-09-09T06:39:09.726Z,100128.88
2022-09-09T06:41:39.594Z,100120.94
2022-09-09T06:44:06.156Z,100123.75
2022-09-09T06:46:34.176Z,100128.41
2022-09-09T06:49:01.422Z,100128.41
2022-09-09T06:51:34.420Z,100128.19
2022-09-09T06:54:03.241Z,100131.16
2022-09-09T06:56:47.655Z,100129.34
2022-09-09T06:59:14.476Z,100132.06
2022-09-09T07:01:43.004Z,100142.59
2022-09-09T07:04:10.455Z,100142.59
2022-09-09T07:06:39.309Z,100147.66
2022-09-09T07:09:09.381Z,100144.25
2022-09-09T07:11:44.363Z,100145.06
2022-09-09T07:14:14.903Z,100146.97
2022-09-09T07:16:42.901Z,100151.09
2022-09-09T07:19:10.040Z,100147.59
2022-09-09T07:21:37.022Z,100148.69
2022-09-09T07:24:03.838Z,100147.06
2022-09-09T07:26:31.998Z,100145.63
2022-09-09T07:28:58.627Z,100144.13
2022-09-09T07:31:32.745Z,100145.38
2022-09-09T07:34:00.825Z,100146.88
2022-09-09T07:36:33.793Z,100158.47
2022-09-09T07:39:18.914Z,100154.13
2022-09-09T07:41:48.513Z,100154.63
2022-09-09T07:44:18.073Z,100161.19
2022-09-09T07:46:46.398Z,100164.59
2022-09-09T07:49:13.564Z,100160.84
2022-09-09T07:51:43.100Z,100162.31
2022-09-09T07:54:12.664Z,100169.75
2022-09-09T07:56:40.548Z,100161.34
2022-09-09T07:59:08.263Z,100152.53
2022-09-09T08:01:40.454Z,100156.34
2022-09-09T08:04:10.626Z,100155.75
2022-09-09T08:06:42.004Z,100151.97
2022-09-09T08:09:10.117Z,100150.72
2022-09-09T08:11:39.280Z,100152.59
2022-09-09T08:14:08.444Z,100156.41
2022-09-09T08:16:37.646Z,100140.84
2022-09-09T08:19:05.208Z,100146.53
2022-09-09T08:21:34.162Z,100150.50
2022-09-09T08:24:02.388Z,100146.75
2022-09-09T08:26:31.786Z,100156.63
2022-09-09T08:29:00.783Z,100149.88
2022-09-09T08:31:36.764Z,100144.16
2022-09-09T08:34:06.640Z,100147.50
2022-09-09T08:36:39.951Z,100146.63
2022-09-09T08:39:08.063Z,100142.16
2022-09-09T08:42:12.818Z,100148.88
2022-09-09T08:44:54.099Z,100152.59
2022-09-09T08:47:40.329Z,100155.34
2022-09-09T08:50:14.901Z,100156.13
2022-09-09T08:53:11.509Z,100149.16
2022-09-09T08:55:59.834Z,100158.34
2022-09-09T08:58:31.767Z,100152.38
2022-09-09T09:01:10.351Z,100146.75
2022-09-09T09:03:42.836Z,100146.06
2022-09-09T09:06:40.456Z,100152.28
2022-09-09T09:09:46.920Z,100151.59
2022-09-09T09:12:28.075Z,100147.53
2022-09-09T09:14:56.702Z,100145.78
2022-09-09T09:17:26.566Z,100147.94
2022-09-09T09:19:53.063Z,100143.75
2022-09-09T09:22:40.525Z,100139.81
2022-09-09T09:25:13.208Z,100128.16
2022-09-09T09:27:56.960Z,100121.75
2022-09-09T09:30:30.548Z,100119.16
2022-09-09T09:33:07.281Z,100120.28
2022-09-09T09:35:38.581Z,100119.25
2022-09-09T09:41:15.426Z,100115.66
2022-09-09T09:43:43.706Z,100112.50
2022-09-09T09:46:25.172Z,100118.41
2022-09-09T09:49:09.794Z,100117.47
2022-09-09T09:51:37.580Z,100123.59
2022-09-09T09:54:30.966Z,100119.56
2022-09-09T09:57:08.007Z,100125.31
2022-09-09T09:59:39.748Z,100123.50
2022-09-09T10:02:19.537Z,100114.19
2022-09-09T10:04:46.977Z,100114.03
2022-09-09T10:07:21.805Z,100116.16
2022-09-09T10:09:57.320Z,100114.94
2022-09-09T10:12:45.168Z,100111.03
2022-09-09T10:15:51.285Z,100108.47
2022-09-09T10:18:23.870Z,100105.16
2022-09-09T10:21:21.710Z,100104.66
2022-09-09T10:24:06.889Z,100104.31
2022-09-09T10:26:48.775Z,100110.41
2022-09-09T10:29:15.338Z,100106.31
2022-09-09T10:31:47.632Z,100105.44
2022-09-09T10:34:36.798Z,100107.06
2022-09-09T10:37:12.455Z,100115.53
2022-09-09T10:39:44.155Z,100108.09
2022-09-09T10:42:17.684Z,100107.22
2022-09-09T10:44:47.206Z,100101.25
2022-09-09T10:47:47.418Z,100102.72
2022-09-09T10:50:13.924Z,100105.59
2022-09-09T10:53:15.219Z,100110.28
2022-09-09T10:55:51.912Z,100101.31
2022-09-09T10:58:31.147Z,100101.72
2022-09-09T11:01:04.126Z,100107.41
2022-09-09T11:03:32.092Z,100109.72
2022-09-09T11:06:15.293Z,100099.41
2022-09-09T11:08:42.526Z,100095.66
2022-09-09T11:11:30.302Z,100089.97
2022-09-09T11:14:04.576Z,100090.44
2022-09-09T11:16:37.455Z,100091.94
2022-09-09T11:19:37.207Z,100086.44
2022-09-09T11:22:09.603Z,100084.63
2022-09-09T11:24:41.652Z,100086.78
2022-09-09T11:27:15.326Z,100087.38
2022-09-09T11:29:48.889Z,100090.13
2022-09-09T11:32:36.972Z,100089.56
2022-09-09T11:35:21.868Z,100082.56
2022-09-09T11:38:02.975Z,100092.16
2022-09-09T11:40:31.593Z,100085.38
2022-09-09T11:43:41.899Z,100069.19
2022-09-09T11:46:09.841Z,100073.00
2022-09-09T11:48:39.428Z,100077.06
2022-09-09T11:51:16.721Z,100082.44
2022-09-09T11:53:50.756Z,100073.94
2022-09-09T11:56:27.209Z,100075.44
2022-09-09T11:59:03.049Z,100059.22
2022-09-09T12:01:44.654Z,100076.00
2022-09-09T12:04:21.865Z,100062.44
2022-09-09T12:06:57.123Z,100066.03
2022-09-09T12:09:32.749Z,100066.16
2022-09-09T12:12:12.296Z,100084.66
2022-09-09T12:14:56.120Z,100092.31
2022-09-09T12:17:25.744Z,100093.81
2022-09-09T12:20:09.543Z,100084.31
2022-09-09T12:23:03.341Z,100086.38
2022-09-09T12:25:45.052Z,100084.16
2022-09-09T12:28:19.366Z,100078.72
2022-09-09T12:31:06.063Z,100068.63
2022-09-09T12:33:38.377Z,100061.38
2022-09-09T12:36:07.251Z,100066.72
2022-09-09T12:38:41.052Z,100058.38
2022-09-09T12:41:20.960Z,100056.06
2022-09-09T12:43:48.504Z,100054.91
2022-09-09T12:46:38.165Z,100047.88
2022-09-09T12:49:05.534Z,100046.78
2022-09-09T12:51:34.141Z,100041.88
2022-09-09T12:54:01.574Z,100044.72
2022-09-09T12:56:32.774Z,100043.84
2022-09-09T12:59:00.168Z,100041.69
2022-09-09T13:01:34.524Z,100036.81
2022-09-09T13:04:01.503Z,100028.88
2022-09-09T13:06:30.715Z,100024.63
2022-09-09T13:09:00.298Z,100018.78
2022-09-09T13:11:32.877Z,100015.03
2022-09-09T13:14:00.316Z,100017.81
2022-09-09T13:16:32.542Z,100013.44
2022-09-09T13:19:02.304Z,100016.34
2022-09-09T13:21:36.369Z,100008.63
2022-09-09T13:24:04.346Z,100007.94
2022-09-09T13:26:31.123Z,100012.59
2022-09-09T13:29:18.766Z,100017.31
2022-09-09T13:31:46.077Z,100015.84
2022-09-09T13:34:33.522Z,100011.84
2022-09-09T13:37:06.850Z,100014.22
2022-09-09T13:39:38.309Z,100014.94
2022-09-09T13:42:05.523Z,100006.63
2022-09-09T13:44:37.942Z,100004.81
2022-09-09T13:47:10.257Z,99997.16
2022-09-09T13:49:37.548Z,99997.97
2022-09-09T13:52:12.931Z,99991.00
2022-09-09T13:54:40.221Z,99993.75
2022-09-09T13:57:16.092Z,99988.81
2022-09-09T14:00:03.631Z,99983.50
2022-09-09T14:02:29.149Z,99975.63
2022-09-09T14:04:56.399Z,99979.53
2022-09-09T14:07:23.130Z,99972.44
2022-09-09T14:09:51.093Z,99976.50
2022-09-09T14:12:17.815Z,99973.84
2022-09-09T14:14:44.874Z,99958.47
2022-09-09T14:17:11.735Z,99959.22
2022-09-09T14:19:38.275Z,99966.09
2022-09-09T14:22:06.991Z,99964.56
2022-09-09T14:24:34.998Z,99965.72
2022-09-09T14:27:01.638Z,99970.13
2022-09-09T14:29:28.134Z,99971.06
2022-09-09T14:31:54.626Z,99965.13
2022-09-09T14:34:21.146Z,99962.88
2022-09-09T14:36:48.404Z,99964.78
2022-09-09T14:39:14.942Z,99954.53
2022-09-09T14:41:41.534Z,99954.59
2022-09-09T14:44:09.542Z,99952.75
2022-09-09T14:46:36.016Z,99952.81
2022-09-09T14:49:02.566Z,99955.81
2022-09-09T14:51:29.258Z,99959.53
2022-09-09T14:53:58.210Z,99957.06
2022-09-09T14:56:28.747Z,99960.75
2022-09-09T14:58:56.416Z,99963.38
2022-09-09T15:01:23.725Z,99956.78
2022-09-09T15:03:59.113Z,99959.06
2022-09-09T15:06:27.684Z,99958.25
2022-09-09T15:08:54.954Z,99960.78
2022-09-09T15:11:23.065Z,99957.72
2022-09-09T15:13:53.736Z,99958.03
2022-09-09T15:16:21.295Z,99953.84
2022-09-09T15:18:51.363Z,99954.56
2022-09-09T15:21:20.394Z,99960.03
2022-09-09T15:23:48.216Z,99956.31
2022-09-09T15:26:15.243Z,99951.53
2022-09-09T15:28:44.666Z,99959.91
2022-09-09T15:31:22.710Z,99956.66
2022-09-09T15:33:51.901Z,99962.53
2022-09-09T15:36:21.335Z,99961.53
2022-09-09T15:38:48.535Z,99961.97
2022-09-09T15:41:16.280Z,99955.03
2022-09-09T15:43:50.955Z,99971.63
2022-09-09T15:46:37.072Z,99957.25
2022-09-09T15:49:27.017Z,99956.34
2022-09-09T15:52:20.878Z,99948.03
2022-09-09T15:54:47.619Z,99951.91
2022-09-09T15:57:14.586Z,99959.41
2022-09-09T15:59:41.292Z,99953.25
2022-09-09T16:02:08.093Z,99958.41
2022-09-09T16:04:35.042Z,99956.16
2022-09-09T16:07:06.000Z,99969.66
2022-09-09T16:09:33.839Z,99973.63
2022-09-09T16:12:02.591Z,99977.50
2022-09-09T16:14:29.871Z,99980.16
2022-09-09T16:16:57.797Z,99985.16
2022-09-09T16:19:24.287Z,99981.50
2022-09-09T16:21:51.119Z,99981.66
2022-09-09T16:24:20.196Z,99983.59
2022-09-09T16:26:49.887Z,99975.94
2022-09-09T16:29:18.345Z,99978.44
2022-09-09T16:31:46.482Z,99978.25
2022-09-09T16:34:13.821Z,99977.78
2022-09-09T16:36:41.883Z,99982.44
2022-09-09T16:39:16.790Z,99982.78
2022-09-09T16:41:45.074Z,99977.13
2022-09-09T16:44:13.535Z,99974.31
2022-09-09T16:46:42.675Z,99968.31
2022-09-09T16:49:12.122Z,99977.03
2022-09-09T16:51:41.312Z,99975.94
2022-09-09T16:54:09.676Z,99975.41
2022-09-09T16:56:38.521Z,99988.44
2022-09-09T16:59:08.030Z,99996.41
2022-09-09T17:01:41.647Z,99998.56
2022-09-09T17:04:10.213Z,100002.25
2022-09-09T17:06:41.315Z,99994.13
2022-09-09T17:09:12.049Z,99990.06
2022-09-09T17:11:41.158Z,99991.84
2022-09-09T17:14:10.377Z,99993.25
2022-09-09T17:16:40.355Z,99996.09
2022-09-09T17:19:09.284Z,100001.22
2022-09-09T17:21:42.741Z,100003.47
2022-09-09T17:24:22.127Z,100001.50
2022-09-09T17:26:48.673Z,100001.50
2022-09-09T17:29:15.458Z,99998.16
2022-09-09T17:31:42.287Z,99997.66
2022-09-09T17:34:09.834Z,99999.50
2022-09-09T17:36:37.971Z,99995.09
2022-09-09T17:39:05.796Z,99990.16
2022-09-09T17:41:38.151Z,100002.22
2022-09-09T17:44:05.883Z,100010.38
2022-09-09T17:46:35.871Z,100007.47
2022-09-09T17:49:05.588Z,100000.19
2022-09-09T17:51:33.275Z,100015.19
2022-09-09T17:54:11.266Z,100015.56
2022-09-09T17:56:39.170Z,100015.78
2022-09-09T17:59:10.300Z,100006.13
2022-09-09T18:01:39.604Z,99998.97
2022-09-09T18:04:08.902Z,99992.88
2022-09-09T18:06:42.278Z,99985.47
2022-09-09T18:09:13.235Z,99992.69
2022-09-09T18:11:43.860Z,100004.78
2022-09-09T18:14:12.858Z,100022.88
2022-09-09T18:16:40.829Z,100022.66
2022-09-09T18:19:13.772Z,100026.16
2022-09-09T18:21:42.113Z,100018.31
2022-09-09T18:24:10.620Z,100019.59
2022-09-09T18:26:37.792Z,100018.97
2022-09-09T18:29:07.913Z,100014.06
2022-09-09T18:31:34.978Z,100020.16
2022-09-09T18:34:03.677Z,100020.19
2022-09-09T18:36:36.065Z,100021.88
2022-09-09T18:39:04.971Z,100032.19
2022-09-09T18:41:44.606Z,100022.50
2022-09-09T18:44:16.598Z,100026.53
2022-09-09T18:46:44.514Z,100024.59
2022-09-09T18:49:12.206Z,100022.72
2022-09-09T18:51:41.210Z,100021.66
2022-09-09T18:54:13.145Z,100031.66
2022-09-09T18:56:40.075Z,100025.19
2022-09-09T18:59:08.578Z,100026.03
2022-09-09T19:01:38.887Z,100029.44
2022-09-09T19:04:07.745Z,100033.47
2022-09-09T19:06:38.379Z,100025.09
2022-09-09T19:09:06.037Z,100021.75
2022-09-09T19:11:33.653Z,100017.09
2022-09-09T19:14:03.815Z,100014.56
2022-09-09T19:16:33.330Z,100018.16
2022-09-09T19:19:06.178Z,100014.81
2022-09-09T19:21:36.611Z,100015.44
2022-09-09T19:24:06.185Z,100015.69
2022-09-09T19:26:40.368Z,100015.69
2022-09-09T19:29:10.176Z,100027.66
2022-09-09T19:31:37.130Z,100025.78
2022-09-09T19:34:04.179Z,100027.47
2022-09-09T19:36:31.618Z,100018.00
2022-09-09T19:39:00.987Z,100023.47
2022-09-09T19:41:31.499Z,100026.19
2022-09-09T19:44:01.787Z,100028.53
2022-09-09T19:46:34.886Z,100031.03
2022-09-09T19:49:02.016Z,100034.41
2022-09-09T19:51:31.048Z,100035.88
2022-09-09T19:54:09.536Z,100031.66
2022-09-09T19:56:38.257Z,100031.25
2022-09-09T19:59:06.420Z,100031.44
2022-09-09T20:01:40.082Z,100040.75
2022-09-09T20:04:07.769Z,100038.84
2022-09-09T20:06:37.476Z,100040.09
2022-09-09T20:09:06.251Z,100041.53
2022-09-09T20:11:33.875Z,100040.72
2022-09-09T20:14:00.727Z,100040.31
2022-09-09T20:16:29.313Z,100043.66
2022-09-09T20:18:58.616Z,100037.78
2022-09-09T20:21:27.827Z,100042.41
2022-09-09T20:23:55.911Z,100033.78
2022-09-09T20:26:28.874Z,100049.53
2022-09-09T20:28:56.135Z,100057.97
2022-09-09T20:31:25.799Z,100049.94
2022-09-09T20:33:53.655Z,100042.81
2022-09-09T20:36:21.582Z,100047.00
2022-09-09T20:38:51.416Z,100046.19
2022-09-09T20:41:21.605Z,100051.41
2022-09-09T20:43:53.492Z,100043.00
2022-09-09T20:46:22.214Z,100039.88
2022-09-09T20:48:52.755Z,100032.09
2022-09-09T20:51:23.597Z,100030.81
2022-09-09T20:53:58.409Z,100017.97
2022-09-09T20:56:26.619Z,100022.38
2022-09-09T20:58:53.806Z,100029.06
2022-09-09T21:01:23.189Z,100028.66
2022-09-09T21:03:50.000Z,100022.56
2022-09-09T21:06:17.190Z,100016.22
2022-09-09T21:08:44.387Z,100013.31
2022-09-09T21:11:10.907Z,100008.91
2022-09-09T21:13:38.989Z,100020.66
2022-09-09T21:16:08.020Z,100020.84
2022-09-09T21:18:35.385Z,100021.91
2022-09-09T21:21:03.630Z,100020.00
2022-09-09T21:23:31.351Z,100025.03
2022-09-09T21:25:58.033Z,100029.06
2022-09-09T21:28:25.789Z,100031.78
2022-09-09T21:30:54.957Z,100020.03
2022-09-09T21:33:23.902Z,100028.84
2022-09-09T21:35:50.542Z,100025.06
2022-09-09T21:38:21.713Z,100017.72
2022-09-09T21:40:52.334Z,100010.78
2022-09-09T21:43:20.516Z,100011.41
2022-09-09T21:45:47.339Z,100015.19
2022-09-09T21:48:16.138Z,100009.72
2022-09-09T21:50:45.214Z,100010.75
2022-09-09T21:53:13.051Z,100001.53
2022-09-09T21:55:41.936Z,100002.16
2022-09-09T21:58:12.132Z,100001.91
2022-09-09T22:00:46.868Z,100006.34
2022-09-09T22:03:14.775Z,100010.13
2022-09-09T22:05:43.159Z,100000.88
2022-09-09T22:08:11.792Z,100009.53
2022-09-09T22:10:40.046Z,100009.69
2022-09-09T22:13:07.318Z,100022.69
2022-09-09T22:15:34.628Z,100010.88
2022-09-09T22:18:03.218Z,100010.69
2022-09-09T22:20:33.338Z,100015.75
2022-09-09T22:23:01.490Z,100011.69
2022-09-09T22:25:32.210Z,100004.56
2022-09-09T22:27:58.755Z,100005.19
2022-09-09T22:30:25.302Z,100010.63
2022-09-09T22:32:51.865Z,100004.75
2022-09-09T22:35:18.369Z,100013.31
2022-09-09T22:37:44.871Z,100009.09
2022-09-09T22:40:14.060Z,100009.78
2022-09-09T22:42:41.818Z,100016.47
2022-09-09T22:45:10.097Z,100001.78
2022-09-09T22:47:37.888Z,100001.59
2022-09-09T22:50:04.763Z,100002.59
2022-09-09T22:52:32.278Z,99994.41
2022-09-09T22:55:01.662Z,99995.19
2022-09-09T22:57:28.184Z,99992.22
2022-09-09T22:59:57.600Z,99997.69
2022-09-09T23:02:29.727Z,99996.25
2022-09-09T23:04:59.191Z,99991.66
2022-09-09T23:07:25.679Z,99994.38
2022-09-09T23:09:52.177Z,99994.38
2022-09-09T23:12:20.125Z,99994.97
2022-09-09T23:14:46.637Z,99996.44
2022-09-09T23:17:16.059Z,99997.00
2022-09-09T23:19:43.643Z,99998.63
2022-09-09T23:22:11.362Z,100002.59
2022-09-09T23:24:37.879Z,100005.56
2022-09-09T23:27:04.549Z,100005.31
2022-09-09T23:29:31.031Z,99997.50
2022-09-09T23:31:57.518Z,100002.16
2022-09-09T23:34:24.016Z,99999.50
2022-09-09T23:36:50.498Z,100005.00
2022-09-09T23:39:17.024Z,100012.31
2022-09-09T23:41:43.523Z,100000.56
2022-09-09T23:44:12.082Z,100003.09
2022-09-09T23:46:38.607Z,100002.47
2022-09-09T23:49:08.246Z,99997.47
2022-09-09T23:51:35.397Z,99998.31
2022-09-09T23:54:04.726Z,99989.06
2022-09-09T23:56:34.795Z,99994.34
2022-09-09T23:59:01.568Z,99982.13
